createdAt,value
2018-04-13T00:00:32.673Z,11.37
2018-04-13T00:03:00.913Z,11.36
2018-04-13T00:05:28.674Z,11.33
2018-04-13T00:07:56.245Z,11.30
2018-04-13T00:10:23.789Z,11.29
2018-04-13T00:12:51.317Z,11.28
2018-04-13T00:15:18.925Z,11.27
2018-04-13T00:17:46.585Z,11.26
2018-04-13T00:20:14.251Z,11.26
2018-04-13T00:22:41.907Z,11.26
2018-04-13T00:25:09.528Z,11.26
2018-04-13T00:27:37.071Z,11.28
2018-04-13T00:30:04.604Z,11.27
2018-04-13T00:32:32.252Z,11.27
2018-04-13T00:35:01.927Z,11.26
2018-04-13T00:37:31.908Z,11.27
2018-04-13T00:40:00.534Z,11.27
2018-04-13T00:42:28.072Z,11.24
2018-04-13T00:44:55.632Z,11.24
2018-04-13T00:47:23.196Z,11.23
2018-04-13T00:49:50.880Z,11.22
2018-04-13T00:52:18.510Z,11.19
2018-04-13T00:54:46.195Z,11.17
2018-04-13T00:57:14.808Z,11.16
2018-04-13T00:59:42.530Z,11.16
2018-04-13T01:02:10.097Z,11.15
2018-04-13T01:04:37.631Z,11.14
2018-04-13T01:07:05.312Z,11.14
2018-04-13T01:09:33.748Z,11.14
2018-04-13T01:12:01.309Z,11.15
2018-04-13T01:14:29.520Z,11.15
2018-04-13T01:16:57.068Z,11.15
2018-04-13T01:19:24.604Z,11.16
2018-04-13T01:21:52.143Z,11.17
2018-04-13T01:24:19.783Z,11.16
2018-04-13T01:26:48.131Z,11.14
2018-04-13T01:29:16.984Z,11.14
2018-04-13T01:31:45.303Z,11.14
2018-04-13T01:34:12.911Z,11.13
2018-04-13T01:36:40.521Z,11.12
2018-04-13T01:39:08.184Z,11.13
2018-04-13T01:41:35.816Z,11.13
2018-04-13T01:44:03.920Z,11.13
2018-04-13T01:46:32.364Z,11.14
2018-04-13T01:49:00.791Z,11.13
2018-04-13T01:51:28.345Z,11.10
2018-04-13T01:53:55.863Z,11.10
2018-04-13T01:56:23.416Z,11.12
2018-04-13T01:58:52.091Z,11.12
2018-04-13T02:01:20.953Z,11.14
2018-04-13T02:03:51.899Z,11.14
2018-04-13T02:06:25.979Z,11.15
2018-04-13T02:08:57.073Z,11.15
2018-04-13T02:11:24.652Z,11.14
2018-04-13T02:13:52.307Z,11.12
2018-04-13T02:16:19.987Z,11.12
2018-04-13T02:18:48.516Z,11.11
2018-04-13T02:21:17.842Z,11.11
2018-04-13T02:23:45.435Z,11.12
2018-04-13T02:26:12.969Z,11.13
2018-04-13T02:28:40.532Z,11.13
2018-04-13T02:31:08.059Z,11.14
2018-04-13T02:33:35.919Z,11.12
2018-04-13T02:36:03.952Z,11.11
2018-04-13T02:38:32.502Z,11.10
2018-04-13T02:41:00.786Z,11.10
2018-04-13T02:43:28.343Z,11.10
2018-04-13T02:45:55.888Z,11.12
2018-04-13T02:48:23.514Z,11.13
2018-04-13T02:50:51.124Z,11.14
2018-04-13T02:53:18.734Z,11.14
2018-04-13T02:55:46.467Z,11.15
2018-04-13T02:58:14.211Z,11.14
2018-04-13T03:00:41.860Z,11.12
2018-04-13T03:03:09.396Z,11.12
2018-04-13T03:05:36.941Z,11.12
2018-04-13T03:08:05.512Z,11.11
2018-04-13T03:10:33.876Z,11.10
2018-04-13T03:13:01.461Z,11.11
2018-04-13T03:15:29.950Z,11.11
2018-04-13T03:17:57.515Z,11.11
2018-04-13T03:20:25.064Z,11.11
2018-04-13T03:22:52.580Z,11.11
2018-04-13T03:25:21.028Z,11.10
2018-04-13T03:27:49.989Z,11.09
2018-04-13T03:30:17.584Z,11.10
2018-04-13T03:32:45.874Z,11.10
2018-04-13T03:35:13.391Z,11.10
2018-04-13T03:37:40.973Z,11.10
2018-04-13T03:40:08.523Z,11.09
2018-04-13T03:42:36.963Z,11.09
2018-04-13T03:45:06.229Z,11.08
2018-04-13T03:47:34.608Z,11.08
2018-04-13T03:50:03.902Z,11.07
2018-04-13T03:52:31.523Z,11.05
2018-04-13T03:54:59.093Z,11.02
2018-04-13T03:57:26.739Z,11.00
2018-04-13T03:59:54.377Z,10.97
2018-04-13T04:02:22.130Z,10.96
2018-04-13T04:04:51.851Z,10.95
2018-04-13T04:07:20.397Z,10.94
2018-04-13T04:09:48.019Z,10.90
2018-04-13T04:12:15.583Z,10.90
2018-04-13T04:14:43.150Z,10.90
2018-04-13T04:17:10.805Z,10.91
2018-04-13T04:19:52.122Z,10.90
2018-04-13T04:22:32.001Z,10.85
2018-04-13T04:25:11.458Z,10.80
2018-04-13T04:27:38.980Z,10.75
2018-04-13T04:30:06.580Z,10.75
2018-04-13T04:32:34.192Z,10.76
2018-04-13T04:35:01.830Z,10.78
2018-04-13T04:37:30.383Z,10.79
2018-04-13T04:39:58.064Z,10.80
2018-04-13T04:42:25.775Z,10.79
2018-04-13T04:44:53.331Z,10.75
2018-04-13T04:47:22.540Z,10.72
2018-04-13T04:49:50.153Z,10.70
2018-04-13T04:52:17.761Z,10.70
2018-04-13T04:54:46.408Z,10.70
2018-04-13T04:57:15.465Z,10.70
2018-04-13T04:59:43.075Z,10.71
2018-04-13T05:02:10.603Z,10.72
2018-04-13T05:04:38.124Z,10.73
2018-04-13T05:07:05.796Z,10.74
2018-04-13T05:09:33.384Z,10.73
2018-04-13T05:12:02.422Z,10.72
2018-04-13T05:14:35.999Z,10.72
2018-04-13T05:17:03.551Z,10.72
2018-04-13T05:19:31.087Z,10.74
2018-04-13T05:21:58.616Z,10.75
2018-04-13T05:24:26.180Z,10.74
2018-04-13T05:26:53.772Z,10.74
2018-04-13T05:29:21.439Z,10.73
2018-04-13T05:31:49.652Z,10.68
2018-04-13T05:34:17.155Z,10.64
2018-04-13T05:36:44.679Z,10.64
2018-04-13T05:39:12.199Z,10.65
2018-04-13T05:41:39.763Z,10.66
2018-04-13T05:44:08.600Z,10.68
2018-04-13T05:46:36.942Z,10.70
2018-04-13T05:49:06.503Z,10.71
2018-04-13T05:51:34.693Z,10.72
2018-04-13T05:54:02.252Z,10.73
2018-04-13T05:56:29.813Z,10.74
2018-04-13T05:58:57.456Z,10.76
2018-04-13T06:01:26.241Z,10.75
2018-04-13T06:03:55.000Z,10.76
2018-04-13T06:06:24.878Z,10.75
2018-04-13T06:08:52.409Z,10.77
2018-04-13T06:11:19.941Z,10.79
2018-04-13T06:13:47.467Z,10.81
2018-04-13T06:16:15.072Z,10.81
2018-04-13T06:18:43.593Z,10.83
2018-04-13T06:21:12.088Z,10.84
2018-04-13T06:23:40.962Z,10.86
2018-04-13T06:26:08.728Z,10.87
2018-04-13T06:28:36.228Z,10.89
2018-04-13T06:31:03.834Z,10.89
2018-04-13T06:33:31.399Z,10.89
2018-04-13T06:35:59.829Z,10.90
2018-04-13T06:38:28.611Z,10.91
2018-04-13T06:40:56.434Z,10.91
2018-04-13T06:43:24.010Z,10.92
2018-04-13T06:45:51.532Z,10.93
2018-04-13T06:48:19.043Z,10.94
2018-04-13T06:50:46.698Z,10.96
2018-04-13T06:53:14.340Z,10.97
2018-04-13T06:55:42.839Z,10.99
2018-04-13T06:58:10.667Z,11.02
2018-04-13T07:00:38.323Z,11.04
2018-04-13T07:03:05.905Z,11.04
2018-04-13T07:05:33.529Z,11.03
2018-04-13T07:08:06.971Z,11.01
2018-04-13T07:10:39.342Z,11.01
2018-04-13T07:13:08.786Z,11.03
2018-04-13T07:15:40.604Z,11.05
2018-04-13T07:18:08.987Z,11.08
2018-04-13T07:20:36.639Z,11.12
2018-04-13T07:23:04.179Z,11.14
2018-04-13T07:25:31.780Z,11.17
2018-04-13T07:28:01.777Z,11.14
2018-04-13T07:30:32.051Z,11.11
2018-04-13T07:33:00.553Z,11.08
2018-04-13T07:35:28.088Z,11.08
2018-04-13T07:37:55.658Z,11.11
2018-04-13T07:40:23.255Z,11.14
2018-04-13T07:42:50.848Z,11.20
2018-04-13T07:45:20.281Z,11.22
2018-04-13T07:47:48.193Z,11.28
2018-04-13T07:50:16.920Z,11.30
2018-04-13T07:52:44.147Z,11.30
2018-04-13T07:55:11.695Z,11.31
2018-04-13T07:57:39.220Z,11.33
2018-04-13T08:00:06.800Z,11.34
2018-04-13T08:02:34.825Z,11.38
2018-04-13T08:05:02.798Z,11.43
2018-04-13T08:07:30.513Z,11.47
2018-04-13T08:09:58.990Z,11.52
2018-04-13T08:12:26.544Z,11.58
2018-04-13T08:14:54.092Z,11.66
2018-04-13T08:17:21.713Z,11.73
2018-04-13T08:19:49.848Z,11.77
2018-04-13T08:22:20.380Z,11.83
2018-04-13T08:24:53.059Z,11.89
2018-04-13T08:27:20.623Z,11.94
2018-04-13T08:29:48.212Z,12.01
2018-04-13T08:32:15.732Z,12.07
2018-04-13T08:34:43.322Z,12.13
2018-04-13T08:37:13.310Z,12.19
2018-04-13T08:42:46.006Z,12.30
2018-04-13T08:45:13.586Z,12.35
2018-04-13T08:47:41.155Z,12.40
2018-04-13T08:50:08.711Z,12.44
2018-04-13T08:52:42.905Z,12.50
2018-04-13T08:58:09.784Z,12.57
2018-04-13T09:00:40.632Z,12.61
2018-04-13T09:03:08.166Z,12.67
2018-04-13T09:05:35.673Z,12.72
2018-04-13T09:08:03.246Z,12.77
2018-04-13T09:10:32.952Z,12.84
2018-04-13T09:18:19.698Z,13.06
2018-04-13T09:20:47.296Z,13.14
2018-04-13T09:23:14.854Z,13.20
2018-04-13T09:25:42.431Z,13.27
2018-04-13T09:28:14.248Z,13.32
2018-04-13T09:30:46.133Z,13.37
2018-04-13T09:33:15.788Z,13.43
2018-04-13T09:35:43.359Z,13.47
2018-04-13T09:38:10.924Z,13.58
2018-04-13T09:40:38.633Z,13.66
2018-04-13T09:43:06.295Z,13.73
2018-04-13T09:45:33.980Z,13.75
2018-04-13T09:48:04.484Z,13.82
2018-04-13T09:50:36.250Z,13.72
2018-04-13T09:53:03.775Z,13.64
2018-04-13T09:55:31.324Z,13.54
2018-04-13T09:57:58.864Z,13.52
2018-04-13T10:00:30.595Z,13.51
2018-04-13T10:03:04.488Z,13.58
2018-04-13T10:05:33.097Z,13.60
2018-04-13T10:08:05.195Z,13.63
2018-04-13T10:10:32.747Z,13.69
2018-04-13T10:13:00.357Z,13.66
2018-04-13T10:15:27.984Z,13.59
2018-04-13T10:17:55.611Z,13.62
2018-04-13T10:20:24.377Z,13.62
2018-04-13T10:22:56.072Z,13.68
2018-04-13T10:25:23.741Z,13.71
2018-04-13T10:27:51.251Z,13.72
2018-04-13T10:30:18.898Z,13.76
2018-04-13T10:32:46.419Z,13.85
2018-04-13T10:35:13.988Z,13.97
2018-04-13T10:37:45.830Z,14.09
2018-04-13T10:42:49.060Z,14.34
2018-04-13T10:45:16.615Z,14.45
2018-04-13T10:47:44.246Z,14.47
2018-04-13T10:50:11.804Z,14.45
2018-04-13T10:52:39.432Z,14.39
2018-04-13T10:55:12.074Z,14.30
2018-04-13T10:57:48.355Z,14.23
2018-04-13T11:00:17.818Z,14.23
2018-04-13T11:02:45.459Z,14.27
2018-04-13T11:05:13.121Z,14.29
2018-04-13T11:07:40.667Z,14.32
2018-04-13T11:10:08.387Z,14.35
2018-04-13T11:12:41.113Z,14.37
2018-04-13T11:15:12.371Z,14.34
2018-04-13T11:17:45.997Z,14.30
2018-04-13T11:20:13.657Z,14.23
2018-04-13T11:22:41.374Z,14.23
2018-04-13T11:25:08.997Z,14.12
2018-04-13T11:27:37.760Z,14.07
2018-04-13T11:30:08.803Z,14.12
2018-04-13T11:32:43.923Z,14.17
2018-04-13T11:35:17.324Z,14.21
2018-04-13T11:37:44.930Z,14.22
2018-04-13T11:40:12.524Z,14.25
2018-04-13T11:42:40.145Z,14.23
2018-04-13T11:45:13.855Z,14.25
2018-04-13T11:47:49.047Z,14.25
2018-04-13T11:50:20.178Z,14.16
2018-04-13T11:52:50.133Z,14.08
2018-04-13T11:55:17.708Z,14.00
2018-04-13T11:57:45.269Z,13.97
2018-04-13T12:00:12.897Z,13.95
2018-04-13T12:02:46.085Z,13.92
2018-04-13T12:05:14.108Z,13.84
2018-04-13T12:07:44.451Z,13.80
2018-04-13T12:10:16.967Z,13.79
2018-04-13T12:12:44.596Z,13.78
2018-04-13T12:15:12.123Z,13.72
2018-04-13T12:17:39.653Z,13.73
2018-04-13T12:20:08.355Z,13.71
2018-04-13T12:22:37.730Z,13.67
2018-04-13T12:25:09.811Z,13.57
2018-04-13T12:27:40.255Z,13.51
2018-04-13T12:30:07.829Z,13.47
2018-04-13T12:32:35.444Z,13.47
2018-04-13T12:35:03.181Z,13.47
2018-04-13T12:37:33.105Z,13.49
2018-04-13T12:40:04.982Z,13.44
2018-04-13T12:42:36.497Z,13.46
2018-04-13T12:45:04.051Z,13.48
2018-04-13T12:47:31.623Z,13.51
2018-04-13T12:49:59.243Z,13.51
2018-04-13T12:52:26.867Z,13.48
2018-04-13T12:55:01.357Z,13.50
2018-04-13T12:57:40.731Z,13.51
2018-04-13T13:00:08.368Z,13.54
2018-04-13T13:02:36.107Z,13.52
2018-04-13T13:05:03.623Z,13.41
2018-04-13T13:07:41.530Z,13.45
2018-04-13T13:10:09.075Z,13.41
2018-04-13T13:12:36.700Z,13.38
2018-04-13T13:15:05.944Z,13.34
2018-04-13T13:17:33.563Z,13.32
2018-04-13T13:20:01.107Z,13.30
2018-04-13T13:22:28.699Z,13.28
2018-04-13T13:24:56.250Z,13.25
2018-04-13T13:27:23.815Z,13.23
2018-04-13T13:30:05.755Z,13.20
2018-04-13T13:32:33.375Z,13.17
2018-04-13T13:37:49.998Z,13.10
2018-04-13T13:40:17.522Z,13.07
2018-04-13T13:42:45.036Z,13.08
2018-04-13T13:45:12.655Z,13.09
2018-04-13T15:01:48.161Z,12.98
2018-04-13T15:04:15.797Z,13.04
2018-04-13T15:06:44.313Z,13.14
2018-04-13T15:09:12.416Z,13.22
2018-04-13T15:11:39.949Z,13.31
2018-04-13T15:17:04.071Z,13.50
2018-04-13T15:22:21.451Z,13.54
2018-04-13T15:24:49.965Z,13.59
2018-04-13T15:27:19.178Z,13.64
2018-04-13T15:40:56.716Z,14.07
2018-04-13T15:43:24.268Z,14.11
2018-04-13T15:45:51.815Z,14.16
2018-04-13T15:54:06.780Z,14.18
2018-04-13T15:56:35.017Z,14.18
2018-04-13T15:59:02.668Z,14.17
2018-04-13T16:01:30.263Z,14.11
2018-04-13T16:03:57.837Z,14.10
2018-04-13T16:14:51.181Z,13.92
2018-04-13T16:17:18.855Z,13.92
2018-04-13T16:19:46.378Z,13.87
2018-04-13T16:22:14.956Z,13.84
2018-04-13T16:24:53.482Z,13.82
2018-04-13T16:30:17.036Z,13.75
2018-04-13T16:32:44.600Z,13.77
2018-04-13T16:35:12.152Z,13.79
2018-04-13T16:37:39.696Z,13.84
2018-04-13T16:40:09.053Z,13.90
2018-04-13T16:42:41.215Z,13.96
2018-04-13T16:45:12.206Z,13.97
2018-04-13T16:47:41.868Z,13.98
2018-04-13T16:50:10.082Z,13.99
2018-04-13T16:52:37.630Z,13.98
2018-04-13T16:55:05.189Z,13.95
2018-04-13T16:57:42.414Z,13.96
2018-04-13T17:02:53.895Z,14.14
2018-04-13T17:05:24.392Z,14.15
2018-04-13T17:07:52.877Z,14.16
2018-04-13T17:10:20.463Z,14.25
2018-04-13T17:12:48.042Z,14.34
2018-04-13T17:15:18.005Z,14.41
2018-04-13T17:17:45.834Z,14.63
2018-04-13T17:20:16.271Z,14.90
2018-04-13T17:22:46.524Z,15.10
2018-04-13T17:25:15.095Z,15.36
2018-04-13T17:27:42.628Z,15.53
2018-04-13T17:30:10.171Z,15.67
2018-04-13T17:32:42.517Z,15.72
2018-04-13T17:35:13.040Z,15.79
2018-04-13T17:37:46.040Z,15.94
2018-04-13T17:40:14.420Z,16.06
2018-04-13T17:42:43.091Z,16.16
2018-04-13T17:45:10.613Z,16.23
2018-04-13T17:47:38.176Z,16.25
2018-04-13T17:50:06.719Z,16.19
2018-04-13T17:52:37.483Z,16.11
2018-04-13T17:55:06.637Z,16.05
2018-04-13T17:57:35.339Z,16.01
2018-04-13T18:00:02.939Z,15.90
2018-04-13T18:02:30.512Z,15.73
2018-04-13T18:04:58.089Z,15.51
2018-04-13T18:07:32.894Z,15.31
2018-04-13T18:10:04.659Z,15.04
2018-04-13T18:12:36.887Z,14.97
2018-04-13T18:15:04.436Z,14.93
2018-04-13T18:17:31.985Z,14.88
2018-04-13T18:19:59.546Z,14.81
2018-04-13T18:22:27.115Z,14.69
2018-04-13T18:32:54.035Z,14.14
2018-04-13T18:35:21.563Z,14.04
2018-04-13T18:37:49.138Z,13.94
2018-04-13T18:40:16.910Z,13.81
2018-04-13T18:48:09.222Z,13.46
2018-04-13T18:50:36.900Z,13.34
2018-04-13T18:53:04.443Z,13.23
2018-04-13T18:55:32.073Z,13.13
2018-04-13T18:58:06.740Z,13.01
2018-04-13T19:00:40.438Z,12.87
2018-04-13T19:03:12.606Z,12.75
2018-04-13T19:05:44.628Z,12.66
2018-04-13T19:08:12.176Z,12.54
2018-04-13T19:10:39.739Z,12.46
2018-04-13T19:13:07.330Z,12.38
2018-04-13T19:15:37.968Z,12.31
2018-04-13T19:18:09.277Z,12.23
2018-04-13T19:20:40.421Z,12.17
2018-04-13T19:23:12.862Z,12.10
2018-04-13T19:25:40.493Z,12.03
2018-04-13T19:28:08.023Z,11.97
2018-04-13T19:30:35.576Z,11.90
2018-04-13T19:33:05.287Z,11.85
2018-04-13T19:35:36.808Z,11.81
2018-04-13T19:38:09.411Z,11.77
2018-04-13T19:40:37.994Z,11.74
2018-04-13T19:43:05.567Z,11.72
2018-04-13T19:45:33.137Z,11.70
2018-04-13T19:48:00.698Z,11.67
2018-04-13T19:50:32.118Z,11.66
2018-04-13T19:53:04.714Z,11.65
2018-04-13T19:58:09.120Z,11.64
2018-04-13T20:00:36.720Z,11.65
2018-04-13T20:03:04.272Z,11.66
2018-04-13T20:05:31.849Z,11.67
2018-04-13T20:10:33.431Z,11.68
2018-04-13T20:13:05.152Z,11.68
2018-04-13T20:15:32.758Z,11.70
2018-04-13T20:18:00.346Z,11.69
2018-04-13T20:20:27.874Z,11.70
2018-04-13T20:22:55.468Z,11.69
2018-04-13T20:25:25.272Z,11.68
2018-04-13T20:27:56.633Z,11.68
2018-04-13T20:30:25.298Z,11.68
2018-04-13T20:32:52.834Z,11.69
2018-04-13T20:35:20.365Z,11.68
2018-04-13T20:37:47.916Z,11.68
2018-04-13T20:40:15.523Z,11.67
2018-04-13T20:42:48.476Z,11.67
2018-04-13T20:45:20.424Z,11.68
2018-04-13T20:47:50.509Z,11.67
2018-04-13T20:50:19.115Z,11.68
2018-04-13T20:52:46.690Z,11.67
2018-04-13T20:55:14.265Z,11.67
2018-04-13T20:57:41.803Z,11.67
2018-04-13T21:00:10.125Z,11.67
2018-04-13T21:02:40.413Z,11.66
2018-04-13T21:05:12.315Z,11.65
2018-04-13T21:07:39.829Z,11.66
2018-04-13T21:10:07.387Z,11.65
2018-04-13T21:12:34.968Z,11.66
2018-04-13T21:15:02.533Z,11.66
2018-04-13T21:17:30.137Z,11.67
2018-04-13T21:20:00.406Z,11.67
2018-04-13T21:22:32.295Z,11.66
2018-04-13T21:25:02.475Z,11.66
2018-04-13T21:27:42.846Z,11.66
2018-04-13T21:30:10.456Z,11.65
2018-04-13T21:32:38.174Z,11.65
2018-04-13T21:35:06.155Z,11.64
2018-04-13T21:37:36.964Z,11.62
2018-04-13T21:40:10.039Z,11.58
2018-04-13T21:42:37.595Z,11.56
2018-04-13T21:45:05.096Z,11.55
2018-04-13T21:47:32.647Z,11.55
2018-04-13T21:50:00.207Z,11.54
2018-04-13T21:52:30.390Z,11.55
2018-04-13T21:54:58.117Z,11.54
2018-04-13T21:57:27.649Z,11.54
2018-04-13T21:59:55.183Z,11.52
2018-04-13T22:02:22.730Z,11.49
2018-04-13T22:04:50.266Z,11.48
2018-04-13T22:07:17.895Z,11.50
2018-04-13T22:09:46.227Z,11.50
2018-04-13T22:12:29.168Z,11.51
2018-04-13T22:15:01.646Z,11.51
2018-04-13T22:17:29.234Z,11.50
2018-04-13T22:19:56.792Z,11.50
2018-04-13T22:22:24.323Z,11.48
2018-04-13T22:24:51.887Z,11.47
2018-04-13T22:27:21.110Z,11.47
2018-04-13T22:29:50.464Z,11.45
2018-04-13T22:32:18.095Z,11.45
2018-04-13T22:34:45.666Z,11.45
2018-04-13T22:37:13.210Z,11.45
2018-04-13T22:39:40.775Z,11.45
2018-04-13T22:42:08.362Z,11.43
2018-04-13T22:44:38.495Z,11.44
2018-04-13T22:47:06.069Z,11.44
2018-04-13T22:49:36.496Z,11.45
2018-04-13T22:52:04.021Z,11.45
2018-04-13T22:54:31.506Z,11.46
2018-04-13T22:56:59.074Z,11.45
2018-04-13T22:59:26.734Z,11.45
2018-04-13T23:01:54.269Z,11.44
2018-04-13T23:04:21.931Z,11.42
2018-04-13T23:06:50.481Z,11.40
2018-04-13T23:09:18.048Z,11.37
2018-04-13T23:11:45.986Z,11.34
2018-04-13T23:14:13.538Z,11.29
2018-04-13T23:16:41.079Z,11.25
2018-04-13T23:19:09.585Z,11.19
2018-04-13T23:21:38.323Z,11.13
2018-04-13T23:24:05.888Z,11.08
2018-04-13T23:26:33.414Z,11.03
2018-04-13T23:29:00.991Z,10.98
2018-04-13T23:31:28.531Z,10.93
2018-04-13T23:33:56.263Z,10.89
2018-04-13T23:36:26.307Z,10.84
2018-04-13T23:38:54.569Z,10.80
2018-04-13T23:41:24.795Z,10.75
2018-04-13T23:43:53.290Z,10.69
2018-04-13T23:46:21.062Z,10.65
2018-04-13T23:48:48.631Z,10.60
2018-04-13T23:51:16.155Z,10.55
2018-04-13T23:53:46.108Z,10.51
2018-04-13T23:56:14.615Z,10.46
2018-04-13T23:58:46.372Z,10.41
